UMMS/MSQ METAR and TAF weather

Enter ICAO airport designator
Station Type Date Time Source
UMMS METAR 2021/07/27 21:00 UTC NOAA

UMMS 272100Z VRB01MPS 4500 BR BKN019 18/17 Q1013 R13L/290060 R13R/////// NOSIG


Station Type Date Time Source
UMMS Decoded METAR 2021/07/27 21:00 UTC NOAA

Minsk, Belarus (UMMS) 53-56N 027-38E 231M
Jul 27, 2021 - 05:00 PM EDT / 2021.07.27 2100 UTC
Wind: Variable at 2 MPH (2 KT):0
Visibility: 2 mile(s):0
Sky conditions: mostly cloudy
Weather: mist
Temperature: 64 F (18 C)
Dew Point: 62 F (17 C)
Relative Humidity: 93%
Pressure (altimeter): 29.91 in. Hg (1013 hPa)
ob: UMMS 272100Z VRB01MPS 4500 BR BKN019 18/17 Q1013 R13L/290060 R13R/////// NOSIG
cycle: 21

Station Type Date Time Source
UMMS TAF 2021/07/27 18:24 UTC NOAA

TAF UMMS 271705Z 2718/2818 14005G10MPS 5000 -RA BR BKN005
TEMPO 2718/2724 VRB18MPS 0400 +TSRA SQ OVC003 BKN015CB
FM280000 18005G10MPS 1200 BR OVC003
TEMPO 2800/2807 0300 FG OVC002
FM280700 19007G12MPS 9999 BKN020

Example: see airport list